Time;durP1;ratioP1;P1;durP2;ratioP2;P2;SDS_P1;SDS_P2;PMS_P1;PMS_P2;Temp;Humidity;BMP_temperature;BMP_pressure;BME280_temperature;BME280_humidity;BME280_pressure;Samples;Min_cycle;Max_cycle;Signal;HPM_P1;HPM_P2
2022/07/05 00:02:14;;;;;;;1.73;0.68;;;;;;;;;;12631224;28;20066;-79
2022/07/05 00:08:15;;;;;;;0.98;0.68;;;;;;;;;;12631101;28;20031;-79
2022/07/05 00:14:17;;;;;;;2.42;0.70;;;;;;;;;;12648247;28;20051;-79
2022/07/05 00:20:19;;;;;;;0.85;0.60;;;;;;;;;;12612667;28;20047;-79
2022/07/05 00:26:21;;;;;;;1.35;0.60;;;;;;;;;;12647823;28;20032;-79
2022/07/05 00:32:23;;;;;;;1.38;0.68;;;;;;;;;;12629414;28;20388;-79
2022/07/05 00:38:24;;;;;;;1.95;0.50;;;;;;;;;;12628682;28;20048;-79
2022/07/05 00:44:38;;;;;;;0.63;0.50;;;;;;;;;;12628911;28;20480;-83
2022/07/05 00:50:40;;;;;;;0.80;0.77;;;;;;;;;;12612301;28;20040;-82
2022/07/05 00:56:43;;;;;;;1.27;0.50;;;;;;;;;;12646344;28;20380;-83
2022/07/05 01:02:45;;;;;;;2.05;0.70;;;;;;;;;;12627891;28;20036;-83
2022/07/05 01:08:47;;;;;;;1.58;0.73;;;;;;;;;;12610857;28;20392;-83
2022/07/05 01:14:49;;;;;;;1.60;0.80;;;;;;;;;;12645419;28;20035;-83
2022/07/05 01:20:51;;;;;;;1.73;0.75;;;;;;;;;;12626941;28;20040;-82
2022/07/05 01:26:53;;;;;;;1.30;0.60;;;;;;;;;;12626961;28;20043;-82
2022/07/05 01:32:55;;;;;;;1.05;0.52;;;;;;;;;;12644750;28;20043;-83
2022/07/05 01:38:57;;;;;;;2.42;1.23;;;;;;;;;;12644607;28;20048;-82
2022/07/05 01:44:59;;;;;;;1.60;0.98;;;;;;;;;;12645394;28;20040;-82
2022/07/05 01:51:06;;;;;;;2.00;0.70;;;;;;;;;;12625136;28;20036;-82
2022/07/05 01:57:08;;;;;;;1.77;0.80;;;;;;;;;;12626509;28;20036;-82
2022/07/05 02:03:11;;;;;;;1.95;0.40;;;;;;;;;;12625478;28;20040;-78
2022/07/05 02:09:14;;;;;;;0.93;0.28;;;;;;;;;;12626636;28;20036;-78
2022/07/05 02:15:16;;;;;;;1.52;0.93;;;;;;;;;;12626002;28;20040;-78
2022/07/05 02:21:18;;;;;;;1.35;0.65;;;;;;;;;;12625558;28;20392;-78
2022/07/05 02:27:22;;;;;;;1.20;0.90;;;;;;;;;;12624980;28;20051;-78
2022/07/05 02:33:25;;;;;;;3.53;0.90;;;;;;;;;;12625197;28;20028;-78
2022/07/05 02:39:27;;;;;;;0.70;0.55;;;;;;;;;;12624939;28;20056;-82
2022/07/05 02:45:32;;;;;;;0.68;0.60;;;;;;;;;;12624893;28;20399;-84
2022/07/05 02:51:35;;;;;;;1.30;0.73;;;;;;;;;;12608213;28;20032;-83
2022/07/05 02:57:39;;;;;;;2.28;0.80;;;;;;;;;;12624975;28;20027;-83
2022/07/05 03:03:43;;;;;;;1.70;0.70;;;;;;;;;;12617246;28;20048;-82
2022/07/05 03:09:45;;;;;;;2.15;0.88;;;;;;;;;;12652939;28;20043;-83
2022/07/05 03:15:48;;;;;;;2.55;0.82;;;;;;;;;;12616509;28;20040;-83
2022/07/05 03:21:53;;;;;;;0.90;0.70;;;;;;;;;;12617275;28;20530;-83
2022/07/05 03:27:56;;;;;;;1.75;0.93;;;;;;;;;;12633462;28;20047;-83
2022/07/05 03:33:58;;;;;;;1.80;0.70;;;;;;;;;;12616153;28;20028;-83
2022/07/05 03:40:00;;;;;;;2.05;0.80;;;;;;;;;;12615841;28;20048;-82
2022/07/05 03:46:02;;;;;;;0.90;0.70;;;;;;;;;;12649749;28;20055;-82
2022/07/05 03:52:06;;;;;;;2.00;0.93;;;;;;;;;;12631290;28;20032;-82
2022/07/05 03:58:08;;;;;;;1.98;1.05;;;;;;;;;;12631269;28;20024;-82
2022/07/05 04:04:10;;;;;;;1.90;1.27;;;;;;;;;;12614935;28;20040;-83
2022/07/05 04:10:12;;;;;;;2.67;1.25;;;;;;;;;;12613959;28;20044;-82
2022/07/05 04:16:14;;;;;;;1.08;0.98;;;;;;;;;;12630536;28;20032;-82
2022/07/05 04:22:16;;;;;;;2.45;1.10;;;;;;;;;;12613532;28;20036;-82
2022/07/05 04:28:19;;;;;;;1.55;1.45;;;;;;;;;;12629257;28;20495;-82
2022/07/05 04:34:23;;;;;;;2.25;1.15;;;;;;;;;;12612969;28;20038;-82
2022/07/05 04:40:25;;;;;;;3.40;1.42;;;;;;;;;;12629520;28;20415;-82
2022/07/05 04:46:27;;;;;;;2.10;1.30;;;;;;;;;;12628747;28;20044;-82
2022/07/05 04:52:30;;;;;;;1.42;1.25;;;;;;;;;;12611735;28;20058;-83
2022/07/05 04:58:32;;;;;;;2.13;1.30;;;;;;;;;;12647352;28;20032;-78
2022/07/05 05:04:33;;;;;;;;;;;;;;;;;;12628008;28;20036;-78
2022/07/05 05:10:35;;;;;;;2.73;1.60;;;;;;;;;;12647067;28;19908;-79
2022/07/05 05:16:36;;;;;;;;;;;;;;;;;;12646456;28;20036;-78
2022/07/05 05:22:38;;;;;;;2.00;1.40;;;;;;;;;;12626904;28;19919;-78
2022/07/05 05:28:40;;;;;;;1.33;1.17;;;;;;;;;;12645193;28;20035;-79
2022/07/05 05:34:41;;;;;;;1.40;1.05;;;;;;;;;;12626916;28;20032;-79
2022/07/05 05:40:44;;;;;;;1.77;1.23;;;;;;;;;;12627481;28;20048;-78
2022/07/05 05:46:45;;;;;;;0.80;0.80;;;;;;;;;;12627062;28;20032;-78
2022/07/05 05:52:48;;;;;;;0.93;0.88;;;;;;;;;;12625882;28;20043;-79
2022/07/05 05:58:50;;;;;;;3.03;1.45;;;;;;;;;;12643620;28;20388;-78
2022/07/05 06:04:51;;;;;;;1.00;0.90;;;;;;;;;;12643543;28;20040;-78
2022/07/05 06:10:53;;;;;;;0.70;0.70;;;;;;;;;;12624706;28;20040;-80
2022/07/05 06:16:55;;;;;;;1.45;0.75;;;;;;;;;;12641940;28;20043;-82
2022/07/05 06:22:57;;;;;;;1.00;0.88;;;;;;;;;;12608170;28;20507;-80
2022/07/05 06:28:59;;;;;;;0.82;0.65;;;;;;;;;;12643376;28;20400;-79
2022/07/05 06:35:00;;;;;;;1.98;1.13;;;;;;;;;;12611069;28;20229;-79
2022/07/05 06:41:02;;;;;;;0.70;0.70;;;;;;;;;;12651646;28;20044;-80
2022/07/05 06:47:04;;;;;;;0.55;0.52;;;;;;;;;;12651205;28;20487;-76
2022/07/05 06:53:06;;;;;;;1.23;0.60;;;;;;;;;;12632699;28;20032;-77
2022/07/05 06:59:08;;;;;;;0.55;0.50;;;;;;;;;;12650047;28;20051;-78
2022/07/05 07:05:10;;;;;;;0.80;0.55;;;;;;;;;;12632722;28;20024;-83
2022/07/05 07:11:13;;;;;;;0.93;0.80;;;;;;;;;;12633866;28;20044;-80
2022/07/05 07:17:15;;;;;;;0.60;0.60;;;;;;;;;;12632478;28;20055;-84
2022/07/05 07:23:16;;;;;;;0.98;0.52;;;;;;;;;;12631559;28;20039;-83
2022/07/05 07:29:18;;;;;;;0.85;0.40;;;;;;;;;;12632893;28;20040;-86
2022/07/05 07:35:20;;;;;;;2.67;1.35;;;;;;;;;;12616041;28;20039;-83
2022/07/05 07:41:22;;;;;;;2.67;1.33;;;;;;;;;;12650095;28;20056;-86
2022/07/05 07:47:24;;;;;;;3.97;1.90;;;;;;;;;;12650886;28;20480;-86
2022/07/05 07:53:25;;;;;;;3.45;1.60;;;;;;;;;;12655741;28;20292;-85
2022/07/05 07:59:27;;;;;;;2.95;1.70;;;;;;;;;;12659946;28;20036;-81
2022/07/05 08:05:29;;;;;;;3.65;1.77;;;;;;;;;;12648124;28;20028;-81
2022/07/05 08:11:31;;;;;;;3.22;1.70;;;;;;;;;;12613583;28;20058;-83
2022/07/05 08:17:33;;;;;;;3.25;1.33;;;;;;;;;;12629951;28;20040;-83
2022/07/05 08:23:35;;;;;;;2.08;1.35;;;;;;;;;;12646871;28;20059;-82
2022/07/05 08:29:38;;;;;;;1.48;1.38;;;;;;;;;;12649332;28;20035;-83
2022/07/05 08:35:40;;;;;;;1.42;1.10;;;;;;;;;;12647304;28;20036;-82
2022/07/05 08:41:43;;;;;;;2.55;1.50;;;;;;;;;;12649859;28;20055;-86
2022/07/05 08:47:45;;;;;;;1.83;1.10;;;;;;;;;;12628204;28;20043;-84
2022/07/05 08:53:48;;;;;;;2.38;1.40;;;;;;;;;;12645666;28;20035;-81
2022/07/05 08:59:49;;;;;;;1.90;1.00;;;;;;;;;;12644328;28;20063;-82
2022/07/05 09:05:55;;;;;;;0.95;0.80;;;;;;;;;;12610177;28;20036;-85
2022/07/05 09:11:57;;;;;;;1.42;0.90;;;;;;;;;;12627174;28;20048;-86
2022/07/05 09:18:00;;;;;;;1.98;1.00;;;;;;;;;;12644658;28;20054;-84
2022/07/05 09:24:04;;;;;;;2.92;1.23;;;;;;;;;;12644207;28;20047;-88
2022/07/05 09:30:06;;;;;;;3.35;1.45;;;;;;;;;;12644067;28;20028;-84
2022/07/05 09:36:07;;;;;;;3.92;1.50;;;;;;;;;;12643773;28;20032;-86
2022/07/05 09:42:12;;;;;;;1.10;0.98;;;;;;;;;;12625646;28;20062;-84
2022/07/05 09:48:14;;;;;;;1.42;1.20;;;;;;;;;;12642895;28;20032;-85
2022/07/05 09:54:16;;;;;;;1.20;1.10;;;;;;;;;;12607777;28;20397;-82
2022/07/05 10:00:19;;;;;;;1.60;1.10;;;;;;;;;;12642285;28;20570;-83
2022/07/05 10:06:25;;;;;;;2.08;1.17;;;;;;;;;;12641762;28;20043;-86
2022/07/05 10:12:27;;;;;;;1.63;1.20;;;;;;;;;;12640083;28;20047;-88
2022/07/05 10:18:31;;;;;;;1.85;1.02;;;;;;;;;;12623517;28;20024;-82
2022/07/05 10:24:35;;;;;;;1.15;1.00;;;;;;;;;;12606914;28;20040;-81
2022/07/05 10:30:38;;;;;;;2.47;0.88;;;;;;;;;;12642202;28;20035;-83
2022/07/05 10:36:40;;;;;;;0.93;0.80;;;;;;;;;;12643017;28;20047;-83
2022/07/05 10:42:59;;;;;;;1.35;0.85;;;;;;;;;;12608125;28;20040;-79
2022/07/05 10:49:20;;;;;;;2.03;1.20;;;;;;;;;;12642639;28;20723;-83
2022/07/05 10:55:22;;;;;;;;;;;;;;;;;;12643864;28;20491;-83
2022/07/05 11:01:23;;;;;;;2.72;0.95;;;;;;;;;;12646793;28;20283;-78
2022/07/05 11:07:44;;;;;;;1.08;0.70;;;;;;;;;;12642690;28;20024;-78
2022/07/05 11:13:48;;;;;;;1.50;0.80;;;;;;;;;;12641808;28;20043;-79
2022/07/05 11:20:01;;;;;;;2.50;1.05;;;;;;;;;;12625924;28;20040;-79
2022/07/05 11:26:02;;;;;;;1.48;0.90;;;;;;;;;;12632978;28;20039;-83
2022/07/05 11:32:07;;;;;;;0.80;0.80;;;;;;;;;;12651600;28;20371;-82
2022/07/05 11:38:09;;;;;;;1.05;0.60;;;;;;;;;;12615972;28;20048;-83
2022/07/05 11:44:12;;;;;;;1.33;0.68;;;;;;;;;;12614996;28;20051;-78
2022/07/05 11:50:14;;;;;;;1.65;0.60;;;;;;;;;;12614902;28;20036;-83
2022/07/05 11:56:16;;;;;;;0.63;0.50;;;;;;;;;;12631655;28;20448;-78
2022/07/05 12:02:18;;;;;;;1.00;0.47;;;;;;;;;;12631098;28;20487;-79
2022/07/05 12:08:21;;;;;;;0.60;0.50;;;;;;;;;;12614978;28;20027;-82
2022/07/05 12:14:23;;;;;;;0.70;0.40;;;;;;;;;;12630992;28;20028;-83
2022/07/05 12:20:25;;;;;;;1.13;0.45;;;;;;;;;;12629911;28;20036;-82
2022/07/05 12:26:28;;;;;;;1.45;0.40;;;;;;;;;;12647811;28;20036;-79
2022/07/05 12:32:30;;;;;;;0.38;0.30;;;;;;;;;;12647302;28;20020;-79
2022/07/05 12:38:32;;;;;;;1.08;0.47;;;;;;;;;;12613301;28;20083;-78
2022/07/05 12:44:34;;;;;;;1.05;0.60;;;;;;;;;;12647076;28;20484;-82
2022/07/05 12:50:46;;;;;;;0.40;0.38;;;;;;;;;;12646711;28;20039;-78
2022/07/05 13:03:09;;;;;;;0.82;0.50;;;;;;;;;;12645734;28;20044;-78
2022/07/05 13:09:11;;;;;;;0.40;0.40;;;;;;;;;;12628712;28;20040;-79
2022/07/05 13:15:13;;;;;;;1.23;0.50;;;;;;;;;;12645837;28;20377;-83
2022/07/05 13:21:15;;;;;;;1.02;0.40;;;;;;;;;;12627178;28;20400;-83
2022/07/05 13:27:17;;;;;;;2.03;0.75;;;;;;;;;;12610513;28;20032;-83
2022/07/05 13:33:18;;;;;;;0.50;0.50;;;;;;;;;;12645027;28;20391;-78
2022/07/05 13:39:21;;;;;;;2.58;0.70;;;;;;;;;;12645404;28;20056;-78
2022/07/05 13:45:22;;;;;;;0.85;0.52;;;;;;;;;;12644274;28;20495;-83
2022/07/05 13:51:24;;;;;;;0.63;0.30;;;;;;;;;;12644280;28;20032;-83
2022/07/05 13:57:26;;;;;;;1.20;0.50;;;;;;;;;;12626125;28;20032;-78
2022/07/05 14:03:28;;;;;;;0.70;0.60;;;;;;;;;;12643718;28;20036;-79
2022/07/05 14:09:29;;;;;;;1.25;0.68;;;;;;;;;;12626876;28;20039;-79
2022/07/05 14:15:31;;;;;;;1.67;0.50;;;;;;;;;;12625255;28;20067;-79
2022/07/05 14:21:33;;;;;;;0.85;0.60;;;;;;;;;;12643738;28;20040;-79
2022/07/05 14:27:35;;;;;;;0.98;0.50;;;;;;;;;;12643906;28;20483;-79
2022/07/05 14:33:39;;;;;;;1.40;0.60;;;;;;;;;;12625018;28;20047;-79
2022/07/05 14:39:41;;;;;;;1.08;0.50;;;;;;;;;;12642957;28;20068;-78
2022/07/05 14:45:43;;;;;;;1.70;0.57;;;;;;;;;;12643093;28;20036;-78
2022/07/05 14:51:44;;;;;;;1.38;0.50;;;;;;;;;;12642443;28;20046;-78
2022/07/05 14:57:46;;;;;;;1.30;0.60;;;;;;;;;;12631027;28;20086;-79
2022/07/05 15:03:48;;;;;;;3.17;1.00;;;;;;;;;;12632955;28;20076;-78
2022/07/05 15:09:50;;;;;;;1.55;0.73;;;;;;;;;;12651958;28;20036;-79
2022/07/05 15:15:52;;;;;;;1.65;0.82;;;;;;;;;;12650782;28;20044;-78
2022/07/05 15:21:54;;;;;;;1.52;0.90;;;;;;;;;;12632324;28;20040;-79
2022/07/05 15:27:56;;;;;;;2.03;0.60;;;;;;;;;;12650020;28;20043;-78
2022/07/05 15:33:58;;;;;;;0.73;0.60;;;;;;;;;;12650365;28;20032;-79
2022/07/05 15:40:00;;;;;;;1.67;0.77;;;;;;;;;;12631697;28;20048;-81
2022/07/05 15:46:02;;;;;;;0.55;0.40;;;;;;;;;;12615326;28;20043;-80
2022/07/05 15:52:04;;;;;;;1.13;0.70;;;;;;;;;;12634039;28;20040;-78
2022/07/05 15:58:06;;;;;;;1.40;0.90;;;;;;;;;;12614627;28;20392;-79
2022/07/05 16:04:08;;;;;;;2.17;0.80;;;;;;;;;;12630463;28;20376;-79
2022/07/05 16:10:13;;;;;;;0.90;0.70;;;;;;;;;;12628937;28;20476;-79
2022/07/05 16:16:15;;;;;;;1.63;0.90;;;;;;;;;;12613852;28;20039;-81
2022/07/05 16:22:18;;;;;;;1.08;0.80;;;;;;;;;;12647983;28;20044;-82
2022/07/05 16:28:20;;;;;;;1.35;0.80;;;;;;;;;;12647411;28;20024;-82
2022/07/05 16:34:22;;;;;;;0.90;0.82;;;;;;;;;;12647250;28;20032;-81
2022/07/05 16:40:23;;;;;;;0.85;0.60;;;;;;;;;;12629541;28;20048;-79
2022/07/05 16:46:29;;;;;;;1.95;0.85;;;;;;;;;;12646854;28;20043;-78
2022/07/05 16:52:31;;;;;;;3.28;0.80;;;;;;;;;;12628073;28;20072;-78
2022/07/05 16:58:35;;;;;;;4.60;0.75;;;;;;;;;;12611048;28;20130;-78
2022/07/05 17:04:37;;;;;;;1.48;0.60;;;;;;;;;;12627285;28;20052;-78
2022/07/05 17:10:39;;;;;;;2.95;0.70;;;;;;;;;;12627889;28;20416;-78
2022/07/05 17:16:40;;;;;;;1.90;0.70;;;;;;;;;;12645052;28;20039;-78
2022/07/05 17:22:42;;;;;;;2.00;0.90;;;;;;;;;;12645160;28;20044;-78
2022/07/05 17:28:45;;;;;;;1.88;0.45;;;;;;;;;;12626547;28;20032;-78
2022/07/05 17:34:47;;;;;;;0.82;0.60;;;;;;;;;;12626978;28;20400;-83
2022/07/05 17:40:48;;;;;;;1.27;0.45;;;;;;;;;;12644588;28;20048;-79
2022/07/05 17:46:50;;;;;;;2.72;0.63;;;;;;;;;;12644751;28;20032;-79
2022/07/05 17:52:52;;;;;;;0.98;0.40;;;;;;;;;;12644239;28;20399;-82
2022/07/05 17:58:55;;;;;;;1.05;0.60;;;;;;;;;;12643832;28;20032;-82
2022/07/05 18:04:56;;;;;;;0.85;0.45;;;;;;;;;;12625573;28;20040;-82
2022/07/05 18:10:58;;;;;;;0.85;0.50;;;;;;;;;;12644822;28;20047;-78
2022/07/05 18:17:00;;;;;;;2.60;0.60;;;;;;;;;;12643393;28;20040;-78
2022/07/05 18:23:02;;;;;;;0.93;0.43;;;;;;;;;;12642950;28;20055;-78
2022/07/05 18:29:03;;;;;;;0.80;0.50;;;;;;;;;;12625859;28;20025;-78
2022/07/05 18:35:07;;;;;;;1.15;0.60;;;;;;;;;;12652781;28;20043;-78
2022/07/05 18:41:08;;;;;;;2.78;1.33;;;;;;;;;;12618165;28;20496;-78
2022/07/05 18:47:10;;;;;;;1.73;0.82;;;;;;;;;;12633911;28;20051;-78
2022/07/05 18:53:12;;;;;;;2.78;0.80;;;;;;;;;;12634508;28;20063;-78
2022/07/05 18:59:13;;;;;;;1.27;0.85;;;;;;;;;;12634034;28;20047;-77
2022/07/05 19:05:15;;;;;;;1.42;1.00;;;;;;;;;;12651861;28;20412;-78
2022/07/05 19:17:37;;;;;;;0.87;0.83;;;;;;;;;;12633110;28;20043;-77
2022/07/05 19:23:39;;;;;;;0.73;0.73;;;;;;;;;;12650445;28;20040;-78
2022/07/05 19:29:42;;;;;;;0.88;0.77;;;;;;;;;;12632784;28;20039;-79
2022/07/05 19:35:43;;;;;;;0.85;0.55;;;;;;;;;;12632257;28;20401;-78
2022/07/05 19:41:45;;;;;;;0.43;0.40;;;;;;;;;;12632083;28;20056;-77
2022/07/05 19:47:48;;;;;;;1.38;0.50;;;;;;;;;;12631424;28;20032;-78
2022/07/05 19:53:49;;;;;;;0.77;0.50;;;;;;;;;;12631376;28;20028;-78
2022/07/05 19:59:51;;;;;;;3.55;0.70;;;;;;;;;;12631037;28;20046;-78
2022/07/05 20:05:54;;;;;;;0.43;0.40;;;;;;;;;;12649114;28;20024;-79
2022/07/05 20:11:56;;;;;;;0.30;0.30;;;;;;;;;;12649028;28;20040;-78
2022/07/05 20:17:57;;;;;;;1.33;0.60;;;;;;;;;;12648265;28;20039;-78
2022/07/05 20:23:59;;;;;;;0.55;0.50;;;;;;;;;;12613356;28;20040;-78
2022/07/05 20:30:01;;;;;;;0.52;0.38;;;;;;;;;;12629991;28;20028;-78
2022/07/05 20:36:03;;;;;;;0.98;0.40;;;;;;;;;;12629499;28;20039;-78
2022/07/05 20:42:05;;;;;;;0.80;0.40;;;;;;;;;;12629632;28;20056;-78
2022/07/05 20:48:07;;;;;;;1.20;0.50;;;;;;;;;;12628796;28;20040;-79
2022/07/05 20:54:08;;;;;;;0.47;0.43;;;;;;;;;;12628201;28;20472;-78
2022/07/05 21:00:10;;;;;;;1.02;0.40;;;;;;;;;;12612396;28;20040;-82
2022/07/05 21:06:12;;;;;;;2.47;0.80;;;;;;;;;;12646344;28;20036;-82
2022/07/05 21:12:14;;;;;;;1.15;0.50;;;;;;;;;;12646070;28;20039;-78
2022/07/05 21:18:16;;;;;;;0.47;0.30;;;;;;;;;;12645912;28;20503;-78
2022/07/05 21:24:18;;;;;;;0.40;0.40;;;;;;;;;;12645295;28;20047;-78
2022/07/05 21:30:19;;;;;;;0.38;0.30;;;;;;;;;;12626969;28;20040;-78
2022/07/05 21:36:21;;;;;;;0.43;0.30;;;;;;;;;;12644907;28;20058;-78
2022/07/05 21:42:23;;;;;;;0.40;0.40;;;;;;;;;;12645053;28;20063;-78
2022/07/05 21:48:24;;;;;;;0.40;0.40;;;;;;;;;;12627084;28;20404;-78
2022/07/05 21:54:27;;;;;;;0.63;0.40;;;;;;;;;;12626308;28;20411;-82
2022/07/05 22:06:49;;;;;;;1.00;0.60;;;;;;;;;;12644880;28;20036;-82
2022/07/05 22:12:51;;;;;;;0.68;0.60;;;;;;;;;;12625615;28;20476;-77
2022/07/05 22:18:53;;;;;;;2.15;0.50;;;;;;;;;;12643562;28;20032;-78
2022/07/05 22:24:54;;;;;;;1.00;0.50;;;;;;;;;;12625460;28;20044;-82
2022/07/05 22:30:56;;;;;;;1.15;0.63;;;;;;;;;;12625752;28;20047;-78
2022/07/05 22:36:58;;;;;;;0.63;0.60;;;;;;;;;;12643688;28;20348;-78
2022/07/05 22:43:00;;;;;;;1.40;0.80;;;;;;;;;;12609086;28;20048;-82
2022/07/05 22:49:01;;;;;;;1.00;0.50;;;;;;;;;;12608565;28;20045;-82
2022/07/05 22:55:03;;;;;;;1.23;0.65;;;;;;;;;;12642922;28;20036;-81
2022/07/05 23:01:05;;;;;;;1.52;0.70;;;;;;;;;;12642514;28;20048;-78
2022/07/05 23:07:07;;;;;;;0.55;0.50;;;;;;;;;;12624897;28;20036;-78
2022/07/05 23:13:09;;;;;;;1.52;0.70;;;;;;;;;;12624958;28;20054;-78
2022/07/05 23:19:11;;;;;;;3.25;0.93;;;;;;;;;;12650438;28;20028;-82
2022/07/05 23:25:13;;;;;;;1.30;0.80;;;;;;;;;;12651955;28;20052;-83
2022/07/05 23:31:15;;;;;;;2.08;1.10;;;;;;;;;;12632554;28;20028;-82
2022/07/05 23:37:17;;;;;;;3.08;1.20;;;;;;;;;;12650450;28;20515;-82
2022/07/05 23:43:19;;;;;;;1.25;0.70;;;;;;;;;;12617583;28;20040;-78
2022/07/05 23:49:20;;;;;;;1.52;0.80;;;;;;;;;;12650557;28;20122;-82
2022/07/05 23:55:22;;;;;;;3.08;0.90;;;;;;;;;;12632245;28;20036;-78
